Time;durP1;ratioP1;P1;durP2;ratioP2;P2;SDS_P1;SDS_P2;PMS_P1;PMS_P2;Temp;Humidity;BMP_temperature;BMP_pressure;BME280_temperature;BME280_humidity;BME280_pressure;Samples;Min_cycle;Max_cycle;Signal;HPM_P1;HPM_P2
2022/03/30 00:00:54;;;;;;;35.55;20.27;;;6.30;82.20;;;;;;5057960;28;20044;-81
2022/03/30 00:03:20;;;;;;;37.28;19.40;;;6.30;82.60;;;;;;5058228;28;20126;-81
2022/03/30 00:05:45;;;;;;;29.45;17.63;;;6.30;82.80;;;;;;5058317;28;20040;-81
2022/03/30 00:08:11;;;;;;;31.17;18.10;;;6.40;82.60;;;;;;5074868;28;20046;-81
2022/03/30 00:10:37;;;;;;;33.47;19.27;;;6.40;83.10;;;;;;5041476;28;20040;-81
2022/03/30 00:13:03;;;;;;;33.22;19.30;;;6.40;82.70;;;;;;5058091;28;20062;-81
2022/03/30 00:15:30;;;;;;;31.75;19.00;;;6.40;82.60;;;;;;5074685;28;20101;-81
2022/03/30 00:17:56;;;;;;;34.80;19.27;;;6.40;83.20;;;;;;5057859;28;20047;-80
2022/03/30 00:20:22;;;;;;;38.05;18.60;;;6.40;82.90;;;;;;5057925;28;20070;-81
2022/03/30 00:22:48;;;;;;;37.20;20.88;;;6.40;82.90;;;;;;5058012;28;20040;-81
2022/03/30 00:25:14;;;;;;;40.33;20.25;;;6.30;83.70;;;;;;5074915;28;20048;-81
2022/03/30 00:27:43;;;;;;;33.38;19.02;;;6.30;83.80;;;;;;5074565;28;20046;-82
2022/03/30 00:30:11;;;;;;;37.53;19.15;;;6.30;84.00;;;;;;5074752;28;20362;-81
2022/03/30 00:32:37;;;;;;;31.45;18.55;;;6.30;84.10;;;;;;5041131;28;20036;-81
2022/03/30 00:35:04;;;;;;;37.20;19.55;;;6.20;84.30;;;;;;5058186;28;20146;-80
2022/03/30 00:37:30;;;;;;;37.90;19.13;;;6.20;84.10;;;;;;5074437;28;20056;-81
2022/03/30 00:39:56;;;;;;;36.80;18.40;;;6.20;83.90;;;;;;5058202;28;20052;-80
2022/03/30 00:42:23;;;;;;;36.45;20.38;;;6.20;84.10;;;;;;5041149;28;20485;-82
2022/03/30 00:44:49;;;;;;;33.38;19.38;;;6.20;84.00;;;;;;5057741;28;20040;-81
2022/03/30 00:47:17;;;;;;;38.50;19.88;;;6.20;84.30;;;;;;5057614;28;20495;-80
2022/03/30 00:49:43;;;;;;;34.13;18.60;;;6.20;84.00;;;;;;5057606;28;20062;-81
2022/03/30 00:52:09;;;;;;;35.15;18.48;;;6.20;84.90;;;;;;5074543;28;20036;-81
2022/03/30 00:54:36;;;;;;;28.90;16.58;;;6.20;84.60;;;;;;5057673;28;20040;-81
2022/03/30 00:57:05;;;;;;;26.08;16.67;;;6.30;84.20;;;;;;5059466;28;20071;-82
2022/03/30 00:59:32;;;;;;;34.30;17.42;;;6.30;84.30;;;;;;5045100;28;20047;-82
2022/03/30 01:01:59;;;;;;;31.38;16.92;;;6.30;84.50;;;;;;5077898;28;20085;-81
2022/03/30 01:04:26;;;;;;;33.33;17.58;;;6.30;84.30;;;;;;5061262;28;20075;-80
2022/03/30 01:06:52;;;;;;;36.85;18.17;;;6.40;84.20;;;;;;5077706;28;20040;-81
2022/03/30 01:09:18;;;;;;;38.15;18.58;;;6.40;84.30;;;;;;5044529;28;20117;-81
2022/03/30 01:11:44;;;;;;;29.75;17.90;;;6.40;85.30;;;;;;5077686;28;20083;-81
2022/03/30 01:14:11;;;;;;;35.35;18.08;;;6.40;84.70;;;;;;5077898;28;20036;-81
2022/03/30 01:16:39;;;;;;;34.45;16.92;;;6.40;85.10;;;;;;5077584;28;20044;-80
2022/03/30 01:19:07;;;;;;;34.28;16.80;;;6.40;85.20;;;;;;5044196;28;20044;-80
2022/03/30 01:21:37;;;;;;;31.77;15.32;;;6.50;84.50;;;;;;5077638;28;20483;-81
2022/03/30 01:24:04;;;;;;;28.40;15.80;;;6.50;84.60;;;;;;5060842;28;20040;-81
2022/03/30 01:26:30;;;;;;;26.60;15.50;;;6.60;84.50;;;;;;5061018;28;20503;-80
2022/03/30 01:28:56;;;;;;;29.73;17.73;;;6.60;84.40;;;;;;5077574;28;20067;-81
2022/03/30 01:34:07;;;;;;;25.92;15.95;;;6.70;84.40;;;;;;5077574;28;20457;-81
2022/03/30 01:36:35;;;;;;;35.67;17.95;;;6.70;84.40;;;;;;5076893;28;20040;-81
2022/03/30 01:39:03;;;;;;;28.50;14.32;;;6.80;84.30;;;;;;5061123;28;20071;-81
2022/03/30 01:41:29;;;;;;;28.73;13.10;;;6.80;84.30;;;;;;5077253;28;20051;-81
2022/03/30 01:43:56;;;;;;;22.35;12.77;;;6.80;84.50;;;;;;5060529;28;20400;-81
2022/03/30 01:46:22;;;;;;;17.63;9.45;;;7.00;84.50;;;;;;5077281;28;20113;-81
2022/03/30 01:48:49;;;;;;;17.70;7.80;;;7.00;84.50;;;;;;5060591;28;20043;-81
2022/03/30 01:51:14;;;;;;;17.15;7.43;;;7.10;84.60;;;;;;5076954;28;20065;-81
2022/03/30 01:53:41;;;;;;;10.30;6.43;;;7.10;84.70;;;;;;5076917;28;20052;-81
2022/03/30 01:56:06;;;;;;;10.38;5.95;;;7.10;84.90;;;;;;5060545;28;20044;-81
2022/03/30 01:58:32;;;;;;;11.77;5.40;;;7.10;85.00;;;;;;5060160;28;20507;-81
2022/03/30 02:00:58;;;;;;;7.70;4.30;;;7.10;85.10;;;;;;5060205;28;20062;-81
2022/03/30 02:03:27;;;;;;;6.80;4.35;;;7.20;85.30;;;;;;5076778;28;20093;-82
2022/03/30 02:05:54;;;;;;;9.10;3.83;;;7.20;85.20;;;;;;5076687;28;20044;-81
2022/03/30 02:08:20;;;;;;;7.15;3.70;;;7.20;85.30;;;;;;5058962;28;20040;-81
2022/03/30 02:10:46;;;;;;;4.90;2.80;;;7.20;85.30;;;;;;5043372;28;20036;-81
2022/03/30 02:13:13;;;;;;;10.75;3.70;;;7.20;85.40;;;;;;5076580;28;20084;-82
2022/03/30 02:15:39;;;;;;;5.10;2.80;;;7.20;85.30;;;;;;5076723;28;20208;-81
2022/03/30 02:18:05;;;;;;;11.65;3.47;;;7.10;85.40;;;;;;5059870;28;20100;-81
2022/03/30 02:20:31;;;;;;;7.03;2.85;;;7.10;85.40;;;;;;5076699;28;20048;-81
2022/03/30 02:22:57;;;;;;;5.43;2.60;;;7.10;85.50;;;;;;5059602;28;20403;-81
2022/03/30 02:25:23;;;;;;;8.07;2.35;;;7.10;85.50;;;;;;5076204;28;20039;-81
2022/03/30 02:27:49;;;;;;;4.15;2.10;;;7.10;85.50;;;;;;5042933;28;20036;-81
2022/03/30 02:30:15;;;;;;;6.30;2.20;;;7.10;85.50;;;;;;5059573;28;20123;-81
2022/03/30 02:32:44;;;;;;;2.95;1.65;;;7.10;85.20;;;;;;5076149;28;20036;-81
2022/03/30 02:35:10;;;;;;;3.83;1.65;;;7.10;85.20;;;;;;5076069;28;20047;-81
2022/03/30 02:37:36;;;;;;;5.75;2.22;;;7.10;85.10;;;;;;5075941;28;20063;-81
2022/03/30 02:40:03;;;;;;;4.80;2.00;;;7.00;85.20;;;;;;5075838;28;20446;-82
2022/03/30 02:42:28;;;;;;;6.15;1.60;;;7.00;85.30;;;;;;5076172;28;20040;-82
2022/03/30 02:44:54;;;;;;;5.07;1.10;;;7.00;85.30;;;;;;5076181;28;20039;-82
2022/03/30 02:48:17;;;;;;;4.82;1.45;;;7.00;85.10;;;;;;5042814;28;20357;-82
2022/03/30 02:50:06;;;;;;;4.07;1.40;;;7.00;85.20;;;;;;5075934;28;20044;-82
2022/03/30 02:52:32;;;;;;;3.55;1.38;;;6.90;85.30;;;;;;5059517;28;20146;-82
2022/03/30 02:54:57;;;;;;;4.82;0.70;;;6.90;85.10;;;;;;5059439;28;20491;-82
2022/03/30 02:57:26;;;;;;;2.40;0.88;;;6.90;85.20;;;;;;5059349;28;20186;-82
2022/03/30 02:59:52;;;;;;;3.65;0.80;;;6.80;85.10;;;;;;5059305;28;20036;-82
2022/03/30 03:02:17;;;;;;;2.53;0.70;;;6.80;84.90;;;;;;5058997;28;20407;-82
2022/03/30 03:04:43;;;;;;;1.83;0.60;;;6.80;84.70;;;;;;5075794;28;20032;-81
2022/03/30 03:07:09;;;;;;;2.33;0.77;;;6.70;84.70;;;;;;5042221;28;20032;-81
2022/03/30 03:09:34;;;;;;;1.63;0.55;;;6.80;84.80;;;;;;5058855;28;20126;-82
2022/03/30 03:12:00;;;;;;;3.03;0.93;;;6.70;84.40;;;;;;5059191;28;20043;-82
2022/03/30 03:14:26;;;;;;;3.25;0.65;;;6.70;84.40;;;;;;5058851;28;20035;-82
2022/03/30 03:16:51;;;;;;;4.85;2.05;;;6.70;84.40;;;;;;5058995;28;20384;-82
2022/03/30 03:19:17;;;;;;;1.83;0.77;;;6.60;84.40;;;;;;5041903;28;20040;-81
2022/03/30 03:21:43;;;;;;;1.27;0.60;;;6.60;84.40;;;;;;5075278;28;20106;-82
2022/03/30 03:24:09;;;;;;;1.30;0.60;;;6.60;84.20;;;;;;5075238;28;20040;-82
2022/03/30 03:26:34;;;;;;;1.65;0.70;;;6.50;84.10;;;;;;5058889;28;20093;-81
2022/03/30 03:29:02;;;;;;;1.25;0.52;;;6.50;83.90;;;;;;5075227;28;20462;-82
2022/03/30 03:31:27;;;;;;;1.35;0.50;;;6.50;83.80;;;;;;5059030;28;20035;-82
2022/03/30 03:33:53;;;;;;;1.38;0.60;;;6.50;84.00;;;;;;5058610;28;20044;-82
2022/03/30 03:36:19;;;;;;;1.00;0.50;;;6.50;83.80;;;;;;5074884;28;20048;-82
2022/03/30 03:38:45;;;;;;;2.47;0.95;;;6.50;83.70;;;;;;5058793;28;20431;-81
2022/03/30 03:41:11;;;;;;;1.17;0.68;;;6.50;83.60;;;;;;5041875;28;20043;-81
2022/03/30 03:43:37;;;;;;;2.00;0.60;;;6.50;83.60;;;;;;5058339;28;20131;-82
2022/03/30 03:46:03;;;;;;;1.40;0.50;;;6.50;83.80;;;;;;5074919;28;20047;-81
2022/03/30 03:48:29;;;;;;;2.10;0.80;;;6.40;83.70;;;;;;5025609;28;20036;-82
2022/03/30 03:50:55;;;;;;;2.25;0.70;;;6.40;83.70;;;;;;5058329;28;20038;-82
2022/03/30 03:53:21;;;;;;;1.02;0.70;;;6.50;83.80;;;;;;5058328;28;20040;-82
2022/03/30 03:55:46;;;;;;;1.77;0.75;;;6.50;83.80;;;;;;5025353;28;20036;-82
2022/03/30 03:58:12;;;;;;;1.73;0.50;;;6.40;83.90;;;;;;5058230;28;20066;-82
2022/03/30 04:00:38;;;;;;;3.28;0.70;;;6.40;84.00;;;;;;5058065;28;20476;-82
2022/03/30 04:03:04;;;;;;;4.80;0.60;;;6.50;84.00;;;;;;5058189;28;20048;-82
2022/03/30 04:05:29;;;;;;;2.40;0.50;;;6.40;83.90;;;;;;5058126;28;20047;-82
2022/03/30 04:07:55;;;;;;;1.10;0.60;;;6.40;84.00;;;;;;5075071;28;20043;-82
2022/03/30 04:10:21;;;;;;;1.60;0.85;;;6.40;84.10;;;;;;5058389;28;20050;-81
2022/03/30 04:12:47;;;;;;;2.00;0.55;;;6.40;84.20;;;;;;5074729;28;20511;-81
2022/03/30 04:15:12;;;;;;;2.33;0.73;;;6.30;84.10;;;;;;5058232;28;20040;-82
2022/03/30 04:17:46;;;;;;;1.77;0.50;;;6.30;84.10;;;;;;5058036;28;20040;-82
2022/03/30 04:20:14;;;;;;;1.30;0.47;;;6.30;84.20;;;;;;5058049;28;20123;-82
2022/03/30 04:22:41;;;;;;;4.07;0.60;;;6.30;84.30;;;;;;5074620;28;20079;-82
2022/03/30 04:25:08;;;;;;;2.28;0.65;;;6.30;84.30;;;;;;5057866;28;20051;-82
2022/03/30 04:27:34;;;;;;;2.15;0.60;;;6.20;84.20;;;;;;5058310;28;20059;-82
2022/03/30 04:30:00;;;;;;;2.30;0.75;;;6.20;84.30;;;;;;5074591;28;20484;-82
2022/03/30 04:32:26;;;;;;;1.83;1.08;;;6.20;84.40;;;;;;5043954;28;20051;-82
2022/03/30 04:34:52;;;;;;;2.42;0.60;;;6.10;84.30;;;;;;5061990;28;20507;-81
2022/03/30 04:37:17;;;;;;;3.67;1.08;;;6.10;84.50;;;;;;5045041;28;20060;-82
2022/03/30 04:39:46;;;;;;;3.88;1.00;;;6.00;84.40;;;;;;5061764;28;20070;-81
2022/03/30 04:42:13;;;;;;;2.35;0.93;;;6.00;84.50;;;;;;5061563;28;20046;-82
2022/03/30 04:44:38;;;;;;;1.33;0.70;;;6.00;84.50;;;;;;5078250;28;20040;-82
2022/03/30 04:47:04;;;;;;;2.30;0.90;;;5.90;84.50;;;;;;5044700;28;20052;-82
2022/03/30 04:49:30;;;;;;;1.17;0.70;;;5.80;84.50;;;;;;5061706;28;20127;-82
2022/03/30 04:51:56;;;;;;;2.75;1.02;;;5.70;84.50;;;;;;5044643;28;20075;-82
2022/03/30 04:54:22;;;;;;;2.45;0.98;;;5.70;84.50;;;;;;5061451;28;20047;-82
2022/03/30 04:56:50;;;;;;;2.55;1.02;;;5.70;84.50;;;;;;5061387;28;20093;-82
2022/03/30 04:59:16;;;;;;;3.55;0.85;;;5.60;84.50;;;;;;5045444;28;20044;-82
2022/03/30 05:01:41;;;;;;;2.53;1.17;;;5.60;84.70;;;;;;5044726;28;20377;-82
2022/03/30 05:04:07;;;;;;;4.13;1.52;;;5.60;84.80;;;;;;5077820;28;20051;-82
2022/03/30 05:06:33;;;;;;;2.33;1.17;;;5.60;84.70;;;;;;5077891;28;20036;-82
2022/03/30 05:08:59;;;;;;;2.65;1.40;;;5.50;84.60;;;;;;5077867;28;20080;-82
2022/03/30 05:11:24;;;;;;;4.72;1.60;;;5.50;84.80;;;;;;5061181;28;20075;-82
2022/03/30 05:13:50;;;;;;;3.75;1.55;;;5.50;84.90;;;;;;5077725;28;20044;-82
2022/03/30 05:16:16;;;;;;;3.58;1.50;;;5.50;84.90;;;;;;5077596;28;20444;-82
2022/03/30 05:18:42;;;;;;;3.35;1.52;;;5.50;84.80;;;;;;5077593;28;20055;-82
2022/03/30 05:21:07;;;;;;;2.03;1.20;;;5.40;84.80;;;;;;5077500;28;20301;-82
2022/03/30 05:23:36;;;;;;;5.03;1.52;;;5.40;84.90;;;;;;5077130;28;20036;-82
2022/03/30 05:26:03;;;;;;;5.57;1.40;;;5.40;85.00;;;;;;5060814;28;20033;-81
2022/03/30 05:28:29;;;;;;;3.75;1.42;;;5.30;85.10;;;;;;5061242;28;20044;-82
2022/03/30 05:30:55;;;;;;;2.53;1.77;;;5.40;85.20;;;;;;5061078;28;20072;-82
2022/03/30 05:33:20;;;;;;;5.95;1.50;;;5.40;85.20;;;;;;5061154;28;20083;-82
2022/03/30 05:35:48;;;;;;;5.25;1.48;;;5.30;85.10;;;;;;5044404;28;20534;-81
2022/03/30 05:38:14;;;;;;;2.70;1.55;;;5.30;85.10;;;;;;5061180;28;20070;-82
2022/03/30 05:40:41;;;;;;;5.32;2.17;;;5.30;84.90;;;;;;5077706;28;20086;-82
2022/03/30 05:43:07;;;;;;;3.72;1.75;;;5.30;85.00;;;;;;5027634;28;20392;-82
2022/03/30 05:45:32;;;;;;;3.45;1.67;;;5.30;85.10;;;;;;5060556;28;20036;-82
2022/03/30 05:47:59;;;;;;;4.10;1.45;;;5.20;85.20;;;;;;5060458;28;20077;-82
2022/03/30 05:50:25;;;;;;;4.10;1.75;;;5.30;85.20;;;;;;5060864;28;20127;-82
2022/03/30 05:52:51;;;;;;;5.00;1.85;;;5.30;85.10;;;;;;5076926;28;20035;-83
2022/03/30 05:55:17;;;;;;;8.88;2.40;;;5.30;85.20;;;;;;5060251;28;20046;-81
2022/03/30 05:57:43;;;;;;;5.57;1.98;;;5.30;85.10;;;;;;5077291;28;20086;-82
2022/03/30 06:00:10;;;;;;;3.15;2.58;;;5.30;85.30;;;;;;5060305;28;20519;-81
2022/03/30 06:02:37;;;;;;;5.75;2.00;;;5.30;85.30;;;;;;5060005;28;20488;-81
2022/03/30 06:05:04;;;;;;;5.47;2.38;;;5.30;85.40;;;;;;5060025;28;20032;-81
2022/03/30 06:07:30;;;;;;;5.22;1.77;;;5.30;85.60;;;;;;5059907;28;20036;-82
2022/03/30 06:09:56;;;;;;;5.95;1.83;;;5.40;85.40;;;;;;5057941;28;20098;-81
2022/03/30 06:12:24;;;;;;;6.63;1.88;;;5.40;85.30;;;;;;5074093;28;20082;-81
2022/03/30 06:14:51;;;;;;;5.95;2.22;;;5.50;85.40;;;;;;5042204;28;20051;-81
2022/03/30 06:17:19;;;;;;;6.53;2.70;;;5.50;85.70;;;;;;5061796;28;20065;-82
2022/03/30 06:19:50;;;;;;;6.32;1.90;;;5.50;85.60;;;;;;5061696;28;20039;-81
2022/03/30 06:22:16;;;;;;;8.80;2.20;;;5.60;85.40;;;;;;5060137;28;20036;-82
2022/03/30 06:24:42;;;;;;;3.97;1.80;;;5.60;85.60;;;;;;5063924;28;20455;-81
2022/03/30 06:27:09;;;;;;;5.30;1.67;;;5.70;85.60;;;;;;5075640;28;20052;-81
2022/03/30 06:29:36;;;;;;;6.03;1.85;;;5.70;85.60;;;;;;5058601;28;20436;-81
2022/03/30 06:32:03;;;;;;;6.82;2.00;;;5.80;85.50;;;;;;5078256;28;20095;-81
2022/03/30 06:34:28;;;;;;;5.00;2.05;;;5.80;85.30;;;;;;5080508;28;20039;-81
2022/03/30 06:36:54;;;;;;;3.90;1.80;;;5.80;85.10;;;;;;5076544;28;20132;-81
2022/03/30 06:39:20;;;;;;;4.15;1.52;;;5.90;85.00;;;;;;5034310;28;20072;-81
2022/03/30 06:41:47;;;;;;;7.55;2.45;;;6.00;84.90;;;;;;5069439;28;20411;-82
2022/03/30 06:44:13;;;;;;;5.95;1.67;;;6.00;84.80;;;;;;5060406;28;20081;-82
2022/03/30 06:46:39;;;;;;;5.45;1.50;;;6.00;84.60;;;;;;5051805;28;20138;-82
2022/03/30 06:49:10;;;;;;;5.60;1.65;;;6.10;84.40;;;;;;5034616;28;20067;-82
2022/03/30 06:51:36;;;;;;;4.75;1.48;;;6.10;84.20;;;;;;5057403;28;20040;-81
2022/03/30 06:54:02;;;;;;;3.50;1.42;;;6.20;83.90;;;;;;5060488;28;20052;-81
2022/03/30 06:56:28;;;;;;;4.68;1.73;;;6.20;83.60;;;;;;5079261;28;20051;-81
2022/03/30 06:58:53;;;;;;;5.93;1.50;;;6.20;83.40;;;;;;5077816;28;20070;-81
2022/03/30 07:01:19;;;;;;;4.53;1.92;;;6.30;83.10;;;;;;5074859;28;20082;-81
2022/03/30 07:03:45;;;;;;;5.57;1.65;;;6.30;82.80;;;;;;5080016;28;20122;-81
2022/03/30 07:06:11;;;;;;;4.50;1.33;;;6.40;82.30;;;;;;5058805;28;20039;-81
2022/03/30 07:11:22;;;;;;;3.53;1.48;;;6.50;82.10;;;;;;5058804;28;20126;-82
2022/03/30 07:13:48;;;;;;;5.90;1.35;;;6.50;81.90;;;;;;5059830;28;20101;-82
2022/03/30 07:16:16;;;;;;;8.18;1.20;;;6.60;81.70;;;;;;5057595;28;20091;-81
2022/03/30 07:18:42;;;;;;;5.45;2.00;;;6.60;81.30;;;;;;5025633;28;20054;-81
2022/03/30 07:21:07;;;;;;;5.93;1.08;;;6.60;80.40;;;;;;5060108;28;20480;-81
2022/03/30 07:23:33;;;;;;;4.05;1.20;;;6.70;80.00;;;;;;5079528;28;20048;-82
2022/03/30 07:26:00;;;;;;;3.63;1.33;;;6.70;79.90;;;;;;5062922;28;20044;-82
2022/03/30 07:28:27;;;;;;;5.43;1.02;;;6.70;79.40;;;;;;5076864;28;20503;-80
2022/03/30 07:30:53;;;;;;;4.55;1.30;;;6.80;78.70;;;;;;5076481;28;20115;-81
2022/03/30 07:33:20;;;;;;;5.47;1.25;;;6.80;78.60;;;;;;5062631;28;20040;-81
2022/03/30 07:35:46;;;;;;;4.95;1.00;;;6.90;78.90;;;;;;5073736;28;20507;-82
2022/03/30 07:38:17;;;;;;;3.97;0.85;;;6.90;79.00;;;;;;5055506;28;20075;-81
2022/03/30 07:40:45;;;;;;;5.63;1.10;;;7.00;78.90;;;;;;5071037;28;20172;-81
2022/03/30 07:43:12;;;;;;;11.27;2.15;;;7.00;79.00;;;;;;5060678;28;20408;-81
2022/03/30 07:45:38;;;;;;;2.88;0.90;;;7.10;78.90;;;;;;5056767;28;20059;-82
2022/03/30 07:48:05;;;;;;;3.88;1.20;;;7.20;78.50;;;;;;5059595;28;20043;-82
2022/03/30 07:50:33;;;;;;;6.18;0.93;;;7.30;78.20;;;;;;5051394;28;20062;-82
2022/03/30 07:52:59;;;;;;;4.00;1.42;;;7.30;77.50;;;;;;5052907;28;20079;-82
2022/03/30 07:55:25;;;;;;;5.53;2.05;;;7.30;77.40;;;;;;5057814;28;20396;-81
2022/03/30 07:57:51;;;;;;;4.93;1.65;;;7.40;77.50;;;;;;5073468;28;20482;-81
2022/03/30 08:00:18;;;;;;;4.00;0.98;;;7.40;77.00;;;;;;5036915;28;20182;-82
2022/03/30 08:02:45;;;;;;;3.58;1.02;;;7.40;77.00;;;;;;5055585;28;20045;-82
2022/03/30 08:05:13;;;;;;;5.07;0.90;;;7.50;76.80;;;;;;5056569;28;20044;-83
2022/03/30 08:07:49;;;;;;;2.95;1.42;;;7.50;76.80;;;;;;5072681;28;20165;-82
2022/03/30 08:10:16;;;;;;;5.57;1.10;;;7.60;76.20;;;;;;5075449;28;20082;-82
2022/03/30 08:12:41;;;;;;;4.70;0.90;;;7.60;75.70;;;;;;5062165;28;20095;-81
2022/03/30 08:15:08;;;;;;;2.17;0.70;;;7.60;75.50;;;;;;5080229;28;20144;-82
2022/03/30 08:17:35;;;;;;;6.03;0.70;;;7.60;75.10;;;;;;5060936;28;20531;-81
2022/03/30 08:20:01;;;;;;;4.75;1.60;;;7.60;73.60;;;;;;5079123;28;20201;-82
2022/03/30 08:22:28;;;;;;;5.72;0.80;;;7.60;74.20;;;;;;5075783;28;20063;-81
2022/03/30 08:25:10;;;;;;;5.05;1.02;;;7.60;74.00;;;;;;5063366;28;20046;-81
2022/03/30 08:27:36;;;;;;;4.05;0.85;;;7.60;74.30;;;;;;5073524;28;20047;-82
2022/03/30 08:30:05;;;;;;;9.15;1.10;;;7.60;74.20;;;;;;5058729;28;20045;-81
2022/03/30 08:32:31;;;;;;;3.90;0.90;;;7.60;74.40;;;;;;5073852;28;20139;-82
2022/03/30 08:34:57;;;;;;;3.03;0.85;;;7.70;74.40;;;;;;5044261;28;20144;-82
2022/03/30 08:37:23;;;;;;;4.47;1.10;;;7.80;73.70;;;;;;5078566;28;20071;-82
2022/03/30 08:39:50;;;;;;;4.68;0.88;;;7.80;74.10;;;;;;5073000;28;20385;-82
2022/03/30 08:42:17;;;;;;;3.28;1.30;;;7.90;74.20;;;;;;5073507;28;20040;-81
2022/03/30 08:44:46;;;;;;;5.28;2.13;;;7.90;74.40;;;;;;5060380;28;20044;-82
2022/03/30 08:47:12;;;;;;;3.55;0.88;;;8.00;74.50;;;;;;5061260;28;20051;-82
2022/03/30 08:49:38;;;;;;;2.10;0.82;;;8.00;74.40;;;;;;5079077;28;20063;-82
2022/03/30 08:52:09;;;;;;;4.20;0.88;;;8.10;73.50;;;;;;5056378;28;20078;-82
2022/03/30 08:54:36;;;;;;;4.53;0.98;;;8.10;73.50;;;;;;5076307;28;20094;-82
2022/03/30 08:57:03;;;;;;;4.43;1.05;;;8.10;73.90;;;;;;5077261;28;20503;-82
2022/03/30 08:59:28;;;;;;;2.15;0.68;;;8.20;73.80;;;;;;5059729;28;20048;-82
2022/03/30 09:01:55;;;;;;;3.55;0.93;;;8.20;73.10;;;;;;5056191;28;20515;-82
2022/03/30 09:04:21;;;;;;;4.13;1.40;;;8.30;73.10;;;;;;5073616;28;20087;-81
2022/03/30 09:06:49;;;;;;;2.78;0.80;;;8.30;71.60;;;;;;5059572;28;20076;-83
2022/03/30 09:09:25;;;;;;;6.15;1.98;;;8.30;72.50;;;;;;5058837;28;20117;-83
2022/03/30 09:11:55;;;;;;;4.35;0.90;;;8.40;73.10;;;;;;5073406;28;20058;-82
2022/03/30 09:14:24;;;;;;;3.05;0.85;;;8.50;72.40;;;;;;5042362;28;20036;-82
2022/03/30 09:16:56;;;;;;;3.63;0.80;;;8.50;72.30;;;;;;5061870;28;20484;-83
2022/03/30 09:22:28;;;;;;;5.00;0.80;;;8.40;71.60;;;;;;5058831;28;20059;-82
2022/03/30 09:24:54;;;;;;;5.50;0.82;;;8.40;71.20;;;;;;5076505;28;20443;-83
2022/03/30 09:27:23;;;;;;;2.75;0.80;;;8.40;71.70;;;;;;5055808;28;20036;-83
2022/03/30 09:29:49;;;;;;;2.58;1.00;;;8.50;70.10;;;;;;5076056;28;20040;-82
2022/03/30 09:32:15;;;;;;;5.60;0.95;;;8.50;70.40;;;;;;5073029;28;20074;-82
2022/03/30 09:34:50;;;;;;;3.28;1.15;;;8.50;71.10;;;;;;5077212;28;20048;-83
2022/03/30 09:37:16;;;;;;;4.72;0.82;;;8.60;70.10;;;;;;5076650;28;20577;-83
2022/03/30 09:39:43;;;;;;;2.92;0.60;;;8.60;69.40;;;;;;5062906;28;20044;-83
2022/03/30 09:42:10;;;;;;;2.72;0.70;;;8.70;69.00;;;;;;5058807;28;20452;-83
2022/03/30 09:44:53;;;;;;;3.42;0.88;;;8.80;68.70;;;;;;5077851;28;20119;-84
2022/03/30 09:47:20;;;;;;;2.70;0.65;;;8.90;68.90;;;;;;5080686;28;20047;-83
2022/03/30 09:49:48;;;;;;;3.25;0.70;;;9.00;66.90;;;;;;5076221;28;20507;-82
2022/03/30 09:52:19;;;;;;;1.48;0.57;;;9.10;67.30;;;;;;5061398;28;20055;-82
2022/03/30 09:54:49;;;;;;;2.95;1.05;;;9.30;67.70;;;;;;5061980;28;20040;-83
2022/03/30 09:57:19;;;;;;;4.05;0.80;;;9.40;66.80;;;;;;5063241;28;20048;-83
2022/03/30 10:00:12;;;;;;;4.28;0.50;;;9.50;66.20;;;;;;5071247;28;20088;-83
2022/03/30 10:02:51;;;;;;;3.20;0.73;;;9.50;64.90;;;;;;5096978;28;20048;-81
2022/03/30 10:05:22;;;;;;;1.95;0.60;;;9.50;64.60;;;;;;5079532;28;20036;-80
2022/03/30 10:07:49;;;;;;;2.08;0.50;;;9.50;64.70;;;;;;5080134;28;20043;-81
2022/03/30 10:10:19;;;;;;;3.28;0.60;;;9.50;64.30;;;;;;5096872;28;20039;-80
2022/03/30 10:12:48;;;;;;;1.75;0.50;;;9.60;63.80;;;;;;5080163;28;20123;-81
2022/03/30 10:15:14;;;;;;;3.35;1.02;;;9.70;64.10;;;;;;5096761;28;20047;-81
2022/03/30 10:17:40;;;;;;;2.70;0.70;;;9.80;64.20;;;;;;5079988;28;20399;-80
2022/03/30 10:20:08;;;;;;;3.17;0.57;;;9.80;63.60;;;;;;5079672;28;20040;-81
2022/03/30 10:22:45;;;;;;;2.05;0.50;;;9.70;63.10;;;;;;5079974;28;20133;-81
2022/03/30 10:25:19;;;;;;;3.17;0.82;;;9.80;63.10;;;;;;5080031;28;20126;-80
2022/03/30 10:28:23;;;;;;;2.35;0.50;;;9.90;61.80;;;;;;5096627;28;20040;-81
2022/03/30 10:30:59;;;;;;;2.28;0.52;;;10.10;62.40;;;;;;5058013;28;20081;-80
2022/03/30 10:33:36;;;;;;;2.97;0.80;;;10.20;62.90;;;;;;5096797;28;20398;-81
2022/03/30 10:36:21;;;;;;;2.50;0.70;;;10.10;61.00;;;;;;5096254;28;20043;-80
2022/03/30 10:39:15;;;;;;;2.00;0.55;;;10.00;60.90;;;;;;5096202;28;20087;-81
2022/03/30 10:42:05;;;;;;;1.85;0.63;;;10.00;61.60;;;;;;5079411;28;20044;-81
2022/03/30 10:44:46;;;;;;;3.90;0.60;;;10.10;61.50;;;;;;5079426;28;20036;-81
2022/03/30 10:47:21;;;;;;;1.55;0.55;;;10.10;60.10;;;;;;5079614;28;20089;-80
2022/03/30 10:49:51;;;;;;;;;;;10.10;60.50;;;;;;5079987;28;20038;-82
2022/03/30 10:52:29;;;;;;;3.58;0.77;;;10.00;61.00;;;;;;5079294;28;19915;-81
2022/03/30 10:55:13;;;;;;;8.82;1.25;;;9.80;61.80;;;;;;5079355;28;20035;-79
2022/03/30 10:58:01;;;;;;;2.05;0.73;;;9.70;62.00;;;;;;5079264;28;20043;-80
2022/03/30 11:00:27;;;;;;;1.48;0.45;;;9.70;61.90;;;;;;5096371;28;20388;-80
2022/03/30 11:03:05;;;;;;;3.10;0.60;;;9.90;61.80;;;;;;5078953;28;20046;-80
2022/03/30 11:05:31;;;;;;;3.60;0.63;;;10.10;58.90;;;;;;5078912;28;20487;-82
2022/03/30 11:07:59;;;;;;;1.63;0.70;;;10.40;59.80;;;;;;5062611;28;20180;-81
2022/03/30 11:10:28;;;;;;;1.85;0.52;;;10.60;60.60;;;;;;5062488;28;20042;-82
2022/03/30 11:12:56;;;;;;;3.58;0.60;;;10.60;60.10;;;;;;5079347;28;20369;-82
2022/03/30 11:15:22;;;;;;;5.55;1.20;;;10.60;59.30;;;;;;5095590;28;20053;-81
2022/03/30 11:17:48;;;;;;;1.25;0.50;;;10.60;58.60;;;;;;5095643;28;20043;-80
2022/03/30 11:20:14;;;;;;;5.80;0.82;;;10.60;58.70;;;;;;5095610;28;20070;-81
2022/03/30 11:22:45;;;;;;;2.92;0.70;;;10.60;58.40;;;;;;5061980;28;20069;-81
2022/03/30 11:25:23;;;;;;;2.58;0.88;;;10.70;58.60;;;;;;5078935;28;20508;-82
2022/03/30 11:27:58;;;;;;;5.70;1.33;;;10.60;58.30;;;;;;5079008;28;20047;-81
2022/03/30 11:30:37;;;;;;;3.20;0.73;;;10.70;58.80;;;;;;5095778;28;20384;-82
2022/03/30 11:33:12;;;;;;;2.97;0.80;;;10.70;59.00;;;;;;5078591;28;20368;-81
2022/03/30 11:35:42;;;;;;;4.30;0.80;;;10.70;60.00;;;;;;5078644;28;20043;-81
2022/03/30 11:38:21;;;;;;;3.08;1.00;;;10.70;58.30;;;;;;5078328;28;20558;-80
2022/03/30 11:40:48;;;;;;;4.43;0.85;;;10.60;57.10;;;;;;5095177;28;20081;-81
2022/03/30 11:43:17;;;;;;;3.22;0.77;;;10.60;57.10;;;;;;5078821;28;20047;-81
2022/03/30 11:45:43;;;;;;;2.40;0.70;;;10.60;57.60;;;;;;5095177;28;20551;-81
2022/03/30 11:48:11;;;;;;;2.83;0.77;;;10.50;58.80;;;;;;5078711;28;20126;-80
2022/03/30 11:50:44;;;;;;;5.35;0.90;;;10.50;58.30;;;;;;5078357;28;20034;-80
2022/03/30 11:53:18;;;;;;;2.83;0.75;;;10.50;59.40;;;;;;5078661;28;20067;-81
2022/03/30 11:55:53;;;;;;;2.90;0.70;;;10.70;58.30;;;;;;5094896;28;20053;-81
2022/03/30 11:58:46;;;;;;;3.35;0.73;;;10.80;58.40;;;;;;5095484;28;20126;-80
2022/03/30 12:01:16;;;;;;;4.18;0.80;;;10.70;56.90;;;;;;5074743;28;20048;-80
2022/03/30 12:03:42;;;;;;;4.20;0.70;;;10.70;58.10;;;;;;5078363;28;20039;-80
2022/03/30 12:06:10;;;;;;;6.85;1.00;;;10.70;57.00;;;;;;5078474;28;20049;-81
2022/03/30 12:08:41;;;;;;;2.45;0.75;;;10.60;57.80;;;;;;5078283;28;20040;-81
2022/03/30 12:11:07;;;;;;;5.07;0.80;;;10.60;58.10;;;;;;5078416;28;20035;-80
2022/03/30 12:13:33;;;;;;;5.07;0.98;;;10.50;57.30;;;;;;5095003;28;20043;-81
2022/03/30 12:16:05;;;;;;;2.88;0.80;;;10.30;57.70;;;;;;5061629;28;20039;-81
2022/03/30 12:18:33;;;;;;;2.45;0.82;;;10.30;58.90;;;;;;5095297;28;20425;-80
2022/03/30 12:21:03;;;;;;;2.95;0.63;;;10.30;59.30;;;;;;5078185;28;20035;-81
2022/03/30 12:23:28;;;;;;;3.20;0.70;;;10.30;58.60;;;;;;5095044;28;20039;-81
2022/03/30 12:25:54;;;;;;;2.60;0.60;;;10.20;58.60;;;;;;5078242;28;20575;-80
2022/03/30 12:28:33;;;;;;;4.85;0.60;;;10.20;59.40;;;;;;5094764;28;20426;-81
2022/03/30 12:31:00;;;;;;;6.68;1.02;;;10.30;58.40;;;;;;5061435;28;20044;-81
2022/03/30 12:33:26;;;;;;;3.25;0.75;;;10.30;57.10;;;;;;5094866;28;20047;-80
2022/03/30 12:35:53;;;;;;;10.30;1.77;;;10.50;58.20;;;;;;5078039;28;20043;-81
2022/03/30 12:38:21;;;;;;;4.20;0.70;;;10.50;57.50;;;;;;5078207;28;20091;-81
2022/03/30 12:40:53;;;;;;;3.45;1.25;;;10.60;56.60;;;;;;5078130;28;20043;-81
2022/03/30 12:43:27;;;;;;;3.50;0.80;;;10.90;56.60;;;;;;5094851;28;20039;-81
2022/03/30 12:45:57;;;;;;;4.78;1.05;;;11.20;55.60;;;;;;5094643;28;20395;-81
2022/03/30 12:48:34;;;;;;;3.60;0.93;;;11.50;55.50;;;;;;5078410;28;20352;-81
2022/03/30 12:51:02;;;;;;;3.67;0.70;;;11.70;54.00;;;;;;5078166;28;20027;-81
2022/03/30 12:53:39;;;;;;;6.28;1.33;;;11.80;54.20;;;;;;5097979;28;20039;-81
2022/03/30 12:56:20;;;;;;;3.20;1.00;;;11.90;52.90;;;;;;5065788;28;20043;-81
2022/03/30 12:58:51;;;;;;;4.20;1.00;;;11.90;53.60;;;;;;5099055;28;20043;-81
2022/03/30 13:01:27;;;;;;;6.25;1.65;;;11.90;54.20;;;;;;5081981;28;20039;-81
2022/03/30 13:03:53;;;;;;;5.10;0.98;;;11.90;54.60;;;;;;5098293;28;20050;-81
2022/03/30 13:06:20;;;;;;;2.75;0.70;;;11.70;54.40;;;;;;5098163;28;20042;-81